Time;durP1;ratioP1;P1;durP2;ratioP2;P2;SDS_P1;SDS_P2;PMS_P1;PMS_P2;Temp;Humidity;BMP_temperature;BMP_pressure;BME280_temperature;BME280_humidity;BME280_pressure;Samples;Min_cycle;Max_cycle;Signal;HPM_P1;HPM_P2
2024/04/06 00:01:59;;;;;;;;;;;;;;;16.04;47.13;101204.38;5039195;28;1012;-50
2024/04/06 00:04:25;;;;;;;;;;;;;;;15.67;46.72;101200.41;5039307;28;1144;-49
2024/04/06 00:06:51;;;;;;;;;;;;;;;15.64;46.06;101191.78;5037896;28;1060;-49
2024/04/06 00:09:17;;;;;;;;;;;;;;;15.61;45.28;101197.28;5039381;28;1135;-50
2024/04/06 00:11:42;;;;;;;;;;;;;;;17.12;46.16;101195.63;5038866;28;1139;-49
2024/04/06 00:14:08;;;;;;;;;;;;;;;16.18;46.87;101206.16;5038469;28;1028;-51
2024/04/06 00:16:34;;;;;;;;;;;;;;;15.79;46.73;101200.59;5039528;28;1091;-51
2024/04/06 00:18:59;;;;;;;;;;;;;;;15.67;45.95;101213.66;5038677;28;1905;-49
2024/04/06 00:21:26;;;;;;;;;;;;;;;17.05;46.16;101217.41;5038860;28;1012;-48
2024/04/06 00:23:52;;;;;;;;;;;;;;;16.23;47.02;101213.81;5038753;28;1131;-50
2024/04/06 00:26:18;;;;;;;;;;;;;;;15.78;47.16;101214.81;5038589;28;1112;-52
2024/04/06 00:28:43;;;;;;;;;;;;;;;17.00;46.62;101215.88;5038566;28;1059;-46
2024/04/06 00:31:09;;;;;;;;;;;;;;;16.18;47.15;101200.00;5038632;28;1099;-49
2024/04/06 00:33:34;;;;;;;;;;;;;;;15.91;46.81;101199.78;5038870;28;1052;-50
2024/04/06 00:36:00;;;;;;;;;;;;;;;15.84;45.71;101194.97;5038135;28;1186;-48
2024/04/06 00:38:25;;;;;;;;;;;;;;;15.64;45.83;101197.06;5038310;28;1914;-50
2024/04/06 00:40:51;;;;;;;;;;;;;;;16.70;46.28;101203.69;5038348;28;1139;-48
2024/04/06 00:43:16;;;;;;;;;;;;;;;15.94;46.89;101216.47;5038362;28;1031;-50
2024/04/06 00:45:42;;;;;;;;;;;;;;;16.07;47.18;101222.75;5038234;28;1123;-49
2024/04/06 00:48:09;;;;;;;;;;;;;;;16.47;46.89;101231.75;5038579;28;1107;-50
2024/04/06 00:50:35;;;;;;;;;;;;;;;16.03;46.61;101231.88;5037732;28;1036;-49
2024/04/06 00:53:01;;;;;;;;;;;;;;;15.77;46.72;101240.47;5038310;28;1428;-47
2024/04/06 00:55:26;;;;;;;;;;;;;;;16.74;46.60;101234.44;5037648;28;1217;-51
2024/04/06 00:57:52;;;;;;;;;;;;;;;16.05;46.80;101237.09;5038001;28;1967;-50
2024/04/06 01:00:18;;;;;;;;;;;;;;;15.84;46.82;101237.44;5038029;28;1087;-50
2024/04/06 01:02:43;;;;;;;;;;;;;;;15.68;46.06;101235.75;5037614;28;1047;-49
2024/04/06 01:05:09;;;;;;;;;;;;;;;17.27;45.68;101235.41;5037810;28;1012;-47
2024/04/06 01:07:39;;;;;;;;;;;;;;;16.17;46.89;101252.22;5037694;28;1071;-47
2024/04/06 01:10:05;;;;;;;;;;;;;;;15.93;46.42;101246.63;5038235;28;1060;-49
2024/04/06 01:12:31;;;;;;;;;;;;;;;15.79;46.08;101248.34;5038116;28;1036;-49
2024/04/06 01:14:57;;;;;;;;;;;;;;;15.59;45.79;101245.09;5037472;28;1055;-48
2024/04/06 01:17:23;;;;;;;;;;;;;;;15.57;45.13;101236.38;5019571;28;1960;-49
2024/04/06 01:19:48;;;;;;;;;;;;;;;16.61;46.13;101241.50;5037599;28;1272;-46
2024/04/06 01:22:14;;;;;;;;;;;;;;;16.37;46.82;101242.13;5037799;28;1099;-46
2024/04/06 01:24:40;;;;;;;;;;;;;;;15.90;46.57;101248.50;5037621;28;1126;-52
2024/04/06 01:27:05;;;;;;;;;;;;;;;15.62;46.15;101249.34;5037029;28;1123;-52
2024/04/06 01:29:31;;;;;;;;;;;;;;;15.59;45.39;101245.09;5037401;28;1119;-49
2024/04/06 01:31:56;;;;;;;;;;;;;;;15.36;45.56;101246.50;5037669;28;1151;-52
2024/04/06 01:34:22;;;;;;;;;;;;;;;15.34;45.30;101249.25;5037672;28;1096;-52
2024/04/06 01:36:48;;;;;;;;;;;;;;;16.29;45.83;101247.94;5037325;28;1140;-48
2024/04/06 01:39:13;;;;;;;;;;;;;;;16.40;46.09;101244.56;5037309;28;1983;-50
2024/04/06 01:41:40;;;;;;;;;;;;;;;15.69;46.94;101247.19;5037735;28;1122;-50
2024/04/06 01:44:05;;;;;;;;;;;;;;;15.90;47.39;101243.22;5037437;28;1123;-49
2024/04/06 01:46:31;;;;;;;;;;;;;;;16.64;46.55;101249.25;5037403;28;1116;-51
2024/04/06 01:48:57;;;;;;;;;;;;;;;15.79;47.13;101250.97;5037226;28;1221;-49
2024/04/06 01:51:23;;;;;;;;;;;;;;;15.73;46.21;101243.41;5019611;28;962;-48
2024/04/06 01:53:48;;;;;;;;;;;;;;;17.00;46.35;101247.78;5019523;28;1172;-48
2024/04/06 01:56:14;;;;;;;;;;;;;;;16.35;47.12;101241.41;5037123;28;1020;-49
2024/04/06 01:58:39;;;;;;;;;;;;;;;15.84;47.08;101237.44;5036588;28;1914;-52
2024/04/06 02:01:05;;;;;;;;;;;;;;;15.93;46.86;101238.66;5036973;28;1044;-48
2024/04/06 02:03:31;;;;;;;;;;;;;;;16.49;46.73;101232.53;5036299;28;1075;-49
2024/04/06 02:06:00;;;;;;;;;;;;;;;15.88;47.14;101233.66;5037023;28;1151;-46
2024/04/06 02:08:25;;;;;;;;;;;;;;;15.72;46.23;101236.38;5036480;28;1118;-49
2024/04/06 02:10:51;;;;;;;;;;;;;;;16.96;46.32;101232.16;5037068;28;1122;-47
2024/04/06 02:13:16;;;;;;;;;;;;;;;16.20;47.06;101232.59;5036733;28;1134;-52
2024/04/06 02:15:43;;;;;;;;;;;;;;;15.85;46.51;101229.38;5036731;28;858;-49
2024/04/06 02:18:09;;;;;;;;;;;;;;;15.69;46.00;101220.66;5036417;28;1985;-52
2024/04/06 02:20:34;;;;;;;;;;;;;;;17.12;45.61;101219.56;5036970;28;1049;-49
2024/04/06 02:23:00;;;;;;;;;;;;;;;16.07;47.26;101217.44;5036300;28;1083;-47
2024/04/06 02:25:26;;;;;;;;;;;;;;;15.86;46.29;101224.94;5036585;28;1075;-52
2024/04/06 02:27:51;;;;;;;;;;;;;;;15.74;45.94;101218.56;5036063;28;1150;-49
2024/04/06 02:30:17;;;;;;;;;;;;;;;15.70;45.30;101214.44;5036206;28;1136;-49
2024/04/06 02:32:43;;;;;;;;;;;;;;;16.85;45.84;101206.31;5036624;28;1317;-51
2024/04/06 02:35:09;;;;;;;;;;;;;;;15.97;46.73;101208.31;5036703;28;1107;-51
2024/04/06 02:37:34;;;;;;;;;;;;;;;16.21;46.86;101211.28;5036583;28;1987;-49
2024/04/06 02:40:00;;;;;;;;;;;;;;;16.33;46.98;101211.44;5036226;28;853;-51
2024/04/06 02:42:25;;;;;;;;;;;;;;;15.89;46.75;101203.50;5036189;28;1076;-48
2024/04/06 02:44:51;;;;;;;;;;;;;;;16.74;46.42;101201.69;5036428;28;1043;-48
2024/04/06 02:47:16;;;;;;;;;;;;;;;16.81;46.55;101207.44;5036273;28;1068;-49
2024/04/06 02:49:42;;;;;;;;;;;;;;;16.07;47.40;101198.00;5036391;28;1076;-50
2024/04/06 02:52:08;;;;;;;;;;;;;;;15.89;46.49;101203.50;5035936;28;1088;-49
2024/04/06 02:54:33;;;;;;;;;;;;;;;15.82;45.99;101203.03;5035882;28;1135;-50
2024/04/06 02:56:59;;;;;;;;;;;;;;;17.15;46.21;101207.84;5036428;28;1918;-53
2024/04/06 02:59:26;;;;;;;;;;;;;;;16.18;47.30;101194.69;5035861;28;1131;-48
2024/04/06 03:01:52;;;;;;;;;;;;;;;15.85;46.68;101192.22;5036411;28;1131;-49
2024/04/06 03:04:17;;;;;;;;;;;;;;;15.80;46.08;101178.41;5035867;28;894;-48
2024/04/06 03:06:43;;;;;;;;;;;;;;;15.71;45.49;101179.84;5036331;28;1118;-47
2024/04/06 03:09:09;;;;;;;;;;;;;;;15.58;45.44;101179.72;5036092;28;1025;-50
2024/04/06 03:11:34;;;;;;;;;;;;;;;15.39;45.17;101186.19;5035626;28;1079;-50
2024/04/06 03:14:00;;;;;;;;;;;;;;;16.40;45.63;101194.13;5035957;28;1110;-53
2024/04/06 03:16:26;;;;;;;;;;;;;;;16.30;46.11;101191.22;5034391;28;1016;-49
2024/04/06 03:18:51;;;;;;;;;;;;;;;15.83;46.46;101196.78;5035947;28;1985;-48
2024/04/06 03:21:17;;;;;;;;;;;;;;;16.74;46.35;101199.91;5035555;28;1063;-48
2024/04/06 03:23:42;;;;;;;;;;;;;;;16.25;46.83;101198.63;5036035;28;1055;-56
2024/04/06 03:26:08;;;;;;;;;;;;;;;15.84;46.66;101200.28;5035988;28;1152;-57
2024/04/06 03:28:34;;;;;;;;;;;;;;;15.68;46.00;101201.25;5035790;28;873;-56
2024/04/06 03:30:59;;;;;;;;;;;;;;;15.50;46.08;101193.47;5035769;28;1171;-53
2024/04/06 03:33:25;;;;;;;;;;;;;;;15.53;45.37;101195.09;5035640;28;1215;-52
2024/04/06 03:35:50;;;;;;;;;;;;;;;16.69;45.80;101196.69;5036067;28;1192;-57
2024/04/06 03:38:16;;;;;;;;;;;;;;;16.05;46.39;101198.09;5035854;28;1898;-52
2024/04/06 03:40:41;;;;;;;;;;;;;;;15.64;46.28;101197.94;5037167;28;1116;-57
2024/04/06 03:43:07;;;;;;;;;;;;;;;16.92;46.00;101193.44;5039849;28;1107;-58
2024/04/06 03:45:35;;;;;;;;;;;;;;;16.05;46.89;101194.63;5039643;28;1151;-57
2024/04/06 03:48:02;;;;;;;;;;;;;;;17.39;46.18;101193.81;5039296;28;1317;-51
2024/04/06 03:50:27;;;;;;;;;;;;;;;16.62;46.96;101195.38;5039737;28;1179;-57
2024/04/06 03:52:54;;;;;;;;;;;;;;;16.15;47.30;101195.72;5038837;28;940;-55
2024/04/06 03:55:19;;;;;;;;;;;;;;;15.91;46.76;101202.44;5046771;28;1493;-55
2024/04/06 03:57:45;;;;;;;;;;;;;;;17.22;46.78;101206.47;5050469;28;1979;-52
2024/04/06 04:00:13;;;;;;;;;;;;;;;16.52;47.29;101195.13;5039475;28;1135;-59
2024/04/06 04:02:39;;;;;;;;;;;;;;;16.06;47.12;101196.31;5038677;28;1178;-62
2024/04/06 04:05:05;;;;;;;;;;;;;;;15.97;47.11;101193.25;5039239;28;1017;-53
2024/04/06 04:07:32;;;;;;;;;;;;;;;17.07;46.03;101195.06;5039500;28;1152;-51
2024/04/06 04:10:01;;;;;;;;;;;;;;;16.36;48.13;101195.28;5036987;28;1311;-55
2024/04/06 04:12:27;;;;;;;;;;;;;;;16.74;46.94;101199.03;5031640;28;926;-49
2024/04/06 04:14:52;;;;;;;;;;;;;;;16.62;47.02;101201.56;5034209;28;1047;-51
2024/04/06 04:17:18;;;;;;;;;;;;;;;16.46;47.33;101204.38;5037601;28;1898;-58
2024/04/06 04:19:44;;;;;;;;;;;;;;;16.42;47.40;101202.00;5039181;28;1084;-57
2024/04/06 04:22:10;;;;;;;;;;;;;;;16.25;47.88;101198.63;5038625;28;1157;-57
2024/04/06 04:24:35;;;;;;;;;;;;;;;16.09;48.11;101198.78;5038704;28;1063;-54
2024/04/06 04:27:01;;;;;;;;;;;;;;;16.08;48.33;101191.78;5038982;28;1099;-46
2024/04/06 04:29:26;;;;;;;;;;;;;;;16.00;48.37;101194.88;5038421;28;897;-57
2024/04/06 04:31:52;;;;;;;;;;;;;;;15.92;48.50;101195.34;5038990;28;1067;-59
2024/04/06 04:34:17;;;;;;;;;;;;;;;15.83;48.86;101198.59;5038281;28;1241;-61
2024/04/06 04:36:43;;;;;;;;;;;;;;;15.74;48.84;101205.31;5038780;28;1117;-55
2024/04/06 04:39:08;;;;;;;;;;;;;;;16.77;46.91;101206.78;5037797;28;2000;-61
2024/04/06 04:41:34;;;;;;;;;;;;;;;17.33;45.27;101203.06;5037569;28;874;-59
2024/04/06 04:43:59;;;;;;;;;;;;;;;16.56;47.21;101194.00;5037111;28;1079;-58
2024/04/06 04:46:26;;;;;;;;;;;;;;;16.18;48.10;101194.69;5038651;28;1155;-63
2024/04/06 04:48:52;;;;;;;;;;;;;;;16.10;48.18;101203.97;5038555;28;1059;-57
2024/04/06 04:51:18;;;;;;;;;;;;;;;15.96;48.47;101202.19;5038278;28;1047;-60
2024/04/06 04:53:44;;;;;;;;;;;;;;;15.87;48.57;101198.31;5051521;28;957;-58
2024/04/06 04:56:10;;;;;;;;;;;;;;;16.93;46.59;101198.66;5037761;28;1146;-58
2024/04/06 04:58:35;;;;;;;;;;;;;;;17.13;45.73;101201.81;5036901;28;1985;-59
2024/04/06 05:01:01;;;;;;;;;;;;;;;16.49;47.21;101190.88;5031609;28;2600;-59
2024/04/06 05:03:27;;;;;;;;;;;;;;;16.21;47.98;101191.81;5033717;28;1009;-58
2024/04/06 05:05:53;;;;;;;;;;;;;;;16.10;47.96;101196.00;5037408;28;1080;-59
2024/04/06 05:08:18;;;;;;;;;;;;;;;15.94;48.56;101204.06;5037038;28;1028;-59
2024/04/06 05:10:44;;;;;;;;;;;;;;;16.71;47.41;101210.72;5019073;28;1135;-55
2024/04/06 05:13:10;;;;;;;;;;;;;;;17.19;45.55;101212.00;5020063;28;1115;-59
2024/04/06 05:15:35;;;;;;;;;;;;;;;16.53;47.11;101210.97;5033027;28;1333;-58
2024/04/06 05:18:01;;;;;;;;;;;;;;;16.28;47.77;101211.72;5035895;28;1983;-58
2024/04/06 05:20:27;;;;;;;;;;;;;;;16.08;48.33;101208.53;5036263;28;1340;-57
2024/04/06 05:22:53;;;;;;;;;;;;;;;15.96;48.73;101212.78;5030420;28;1142;-58
2024/04/06 05:25:18;;;;;;;;;;;;;;;16.82;47.00;101214.44;5024801;28;1280;-58
2024/04/06 05:27:44;;;;;;;;;;;;;;;17.33;45.52;101223.50;5037258;28;999;-58
2024/04/06 05:30:10;;;;;;;;;;;;;;;16.67;47.18;101229.59;5037241;28;1203;-58
2024/04/06 05:32:35;;;;;;;;;;;;;;;16.32;47.88;101213.22;5034903;28;2533;-58
2024/04/06 05:35:01;;;;;;;;;;;;;;;16.15;48.42;101225.78;5037106;28;1135;-58
2024/04/06 05:37:26;;;;;;;;;;;;;;;16.06;48.76;101212.25;5036907;28;1902;-57
2024/04/06 05:39:52;;;;;;;;;;;;;;;15.94;49.01;101219.13;5037480;28;1064;-57
2024/04/06 05:42:18;;;;;;;;;;;;;;;15.85;49.07;101221.41;5036115;28;1176;-57
2024/04/06 05:44:43;;;;;;;;;;;;;;;17.06;46.72;101224.41;5036791;28;1180;-58
2024/04/06 05:47:09;;;;;;;;;;;;;;;17.23;45.79;101217.97;5031898;28;1336;-60
2024/04/06 05:49:34;;;;;;;;;;;;;;;16.59;47.31;101223.00;5036485;28;1325;-58
2024/04/06 05:52:00;;;;;;;;;;;;;;;16.28;48.04;101225.00;5036497;28;1068;-59
2024/04/06 05:54:25;;;;;;;;;;;;;;;16.19;48.17;101229.09;5046069;28;1068;-57
2024/04/06 05:56:51;;;;;;;;;;;;;;;16.03;48.62;101221.25;5036778;28;1229;-56
2024/04/06 05:59:17;;;;;;;;;;;;;;;16.36;48.21;101229.81;5036737;28;1968;-57
2024/04/06 06:01:42;;;;;;;;;;;;;;;17.57;45.36;101226.28;5032463;28;2348;-58
2024/04/06 06:04:08;;;;;;;;;;;;;;;16.80;46.97;101217.22;5035607;28;1100;-58
2024/04/06 06:06:33;;;;;;;;;;;;;;;16.37;47.85;101218.22;5036660;28;1087;-57
2024/04/06 06:08:59;;;;;;;;;;;;;;;16.30;48.31;101220.44;5036323;28;1091;-57
2024/04/06 06:11:25;;;;;;;;;;;;;;;16.08;48.62;101218.31;5036700;28;1048;-58
2024/04/06 06:13:51;;;;;;;;;;;;;;;15.97;49.21;101219.78;5018793;28;953;-53
2024/04/06 06:16:16;;;;;;;;;;;;;;;16.50;48.03;101231.56;5036156;28;1024;-55
2024/04/06 06:18:42;;;;;;;;;;;;;;;17.62;45.21;101225.94;5036024;28;1968;-56
2024/04/06 06:21:07;;;;;;;;;;;;;;;16.80;47.01;101229.66;5036530;28;1203;-59
2024/04/06 06:23:33;;;;;;;;;;;;;;;16.51;47.89;101234.13;5036261;28;1286;-55
2024/04/06 06:25:58;;;;;;;;;;;;;;;16.31;48.19;101235.41;5036143;28;1106;-59
2024/04/06 06:28:24;;;;;;;;;;;;;;;16.13;48.62;101229.50;5035813;28;977;-51
2024/04/06 06:30:50;;;;;;;;;;;;;;;16.05;48.87;101240.56;5036103;28;1832;-51
2024/04/06 06:33:21;;;;;;;;;;;;;;;17.47;45.95;101244.69;5036708;28;1040;-53
2024/04/06 06:35:55;;;;;;;;;;;;;;;16.93;46.72;101249.16;5035859;28;1072;-55
2024/04/06 06:38:21;;;;;;;;;;;;;;;16.45;48.13;101244.31;5035807;28;1909;-55
2024/04/06 06:40:47;;;;;;;;;;;;;;;16.24;48.83;101248.22;5035584;28;1063;-55
2024/04/06 06:43:12;;;;;;;;;;;;;;;16.12;48.85;101252.50;5036446;28;1035;-54
2024/04/06 06:45:38;;;;;;;;;;;;;;;16.03;48.95;101248.63;5036208;28;1112;-56
2024/04/06 06:48:04;;;;;;;;;;;;;;;15.92;49.11;101248.41;5035748;28;1394;-56
2024/04/06 06:50:30;;;;;;;;;;;;;;;16.75;47.78;101252.06;5035820;28;1087;-58
2024/04/06 06:52:55;;;;;;;;;;;;;;;17.48;45.67;101256.19;5035739;28;1078;-56
2024/04/06 06:55:21;;;;;;;;;;;;;;;16.68;47.43;101258.75;5035814;28;1055;-53
2024/04/06 06:57:47;;;;;;;;;;;;;;;16.46;48.38;101254.84;5035931;28;1898;-55
2024/04/06 07:00:14;;;;;;;;;;;;;;;16.22;48.88;101255.44;5035768;28;1206;-56
2024/04/06 07:02:40;;;;;;;;;;;;;;;16.12;49.00;101256.97;5028165;28;2565;-56
2024/04/06 07:05:05;;;;;;;;;;;;;;;15.96;49.36;101251.75;5035519;28;1015;-56
2024/04/06 07:07:31;;;;;;;;;;;;;;;16.32;48.96;101266.31;5035398;28;1051;-57
2024/04/06 07:09:57;;;;;;;;;;;;;;;17.63;45.49;101257.75;5035347;28;988;-58
2024/04/06 07:12:23;;;;;;;;;;;;;;;16.91;47.23;101253.72;5036046;28;1036;-57
2024/04/06 07:14:48;;;;;;;;;;;;;;;16.44;48.04;101258.50;5036322;28;1004;-59
2024/04/06 07:17:16;;;;;;;;;;;;;;;16.28;48.88;101254.22;5038835;28;1985;-57
2024/04/06 07:19:41;;;;;;;;;;;;;;;16.12;49.21;101259.63;5038745;28;991;-59
2024/04/06 07:22:07;;;;;;;;;;;;;;;16.02;49.21;101251.38;5039117;28;1035;-57
2024/04/06 07:24:32;;;;;;;;;;;;;;;16.00;49.29;101251.47;5038598;28;1054;-58
2024/04/06 07:26:58;;;;;;;;;;;;;;;17.46;46.24;101250.97;5038988;28;1089;-58
2024/04/06 07:29:24;;;;;;;;;;;;;;;17.10;46.72;101249.88;5039195;28;1084;-59
2024/04/06 07:31:49;;;;;;;;;;;;;;;16.56;48.19;101246.25;5041706;28;2163;-59
2024/04/06 07:34:15;;;;;;;;;;;;;;;16.40;48.46;101244.56;5037925;28;1270;-59
2024/04/06 07:36:41;;;;;;;;;;;;;;;16.20;49.08;101243.22;5038924;28;1259;-59
2024/04/06 07:39:07;;;;;;;;;;;;;;;16.10;49.43;101242.97;5038469;28;1980;-59
2024/04/06 07:41:32;;;;;;;;;;;;;;;16.01;49.43;101250.53;5038667;28;1148;-58
2024/04/06 07:43:58;;;;;;;;;;;;;;;17.02;47.32;101248.53;5037614;28;1051;-57
2024/04/06 07:46:24;;;;;;;;;;;;;;;17.49;45.76;101248.09;5038458;28;1124;-61
2024/04/06 07:48:49;;;;;;;;;;;;;;;16.81;47.83;101245.50;5037783;28;1210;-60
2024/04/06 07:51:15;;;;;;;;;;;;;;;16.54;48.38;101246.34;5038439;28;1263;-60
2024/04/06 07:53:40;;;;;;;;;;;;;;;16.36;48.53;101251.91;5038152;28;1052;-58
2024/04/06 07:56:06;;;;;;;;;;;;;;;16.20;48.99;101243.22;5038401;28;1246;-58
2024/04/06 07:58:32;;;;;;;;;;;;;;;16.15;49.21;101241.69;5020816;28;1914;-60
2024/04/06 08:00:59;;;;;;;;;;;;;;;15.98;49.83;101234.78;5036868;28;2476;-58
2024/04/06 08:03:24;;;;;;;;;;;;;;;16.62;48.42;101232.56;5037600;28;1293;-60
2024/04/06 08:05:51;;;;;;;;;;;;;;;17.58;45.92;101235.13;5038005;28;1255;-64
2024/04/06 08:08:17;;;;;;;;;;;;;;;16.84;47.48;101232.00;5038749;28;1204;-60
2024/04/06 08:10:42;;;;;;;;;;;;;;;16.52;48.58;101227.00;5038516;28;1208;-61
2024/04/06 08:13:08;;;;;;;;;;;;;;;16.31;49.01;101219.50;5038661;28;992;-59
2024/04/06 08:15:34;;;;;;;;;;;;;;;16.22;49.19;101218.28;5038677;28;1032;-60
2024/04/06 08:17:59;;;;;;;;;;;;;;;16.10;49.44;101214.59;5038638;28;1988;-60
2024/04/06 08:20:25;;;;;;;;;;;;;;;16.02;49.68;101209.78;5038929;28;1136;-60
2024/04/06 08:22:51;;;;;;;;;;;;;;;16.72;48.29;101215.06;5038615;28;1044;-60
2024/04/06 08:25:16;;;;;;;;;;;;;;;17.58;45.93;101216.50;5038732;28;1100;-60
2024/04/06 08:27:42;;;;;;;;;;;;;;;16.81;47.64;101208.31;5037855;28;1168;-59
2024/04/06 08:30:09;;;;;;;;;;;;;;;16.55;48.36;101213.53;5037610;28;1076;-58
2024/04/06 08:32:39;;;;;;;;;;;;;;;16.29;49.00;101208.13;5037391;28;2175;-57
2024/04/06 08:35:10;;;;;;;;;;;;;;;16.14;49.13;101201.97;5038527;28;1075;-58
2024/04/06 08:37:35;;;;;;;;;;;;;;;16.01;49.77;101199.25;5025575;28;1964;-58
2024/04/06 08:40:01;;;;;;;;;;;;;;;16.01;49.33;101201.91;5038177;28;1012;-58
2024/04/06 08:42:27;;;;;;;;;;;;;;;17.18;47.19;101196.16;5037622;28;881;-61
2024/04/06 08:44:53;;;;;;;;;;;;;;;17.03;46.92;101190.91;5019961;28;1084;-56
2024/04/06 08:47:21;;;;;;;;;;;;;;;16.57;48.08;101200.13;5037925;28;1448;-56
2024/04/06 08:49:47;;;;;;;;;;;;;;;16.38;48.66;101196.06;5038168;28;1044;-55
2024/04/06 08:52:13;;;;;;;;;;;;;;;16.12;49.29;101202.09;5037853;28;1024;-57
2024/04/06 08:54:39;;;;;;;;;;;;;;;16.11;49.65;101189.78;5037910;28;988;-58
2024/04/06 08:57:05;;;;;;;;;;;;;;;15.99;49.82;101179.94;5020174;28;1047;-57
2024/04/06 08:59:31;;;;;;;;;;;;;;;16.80;48.04;101177.34;5037768;28;1918;-58
2024/04/06 09:01:56;;;;;;;;;;;;;;;17.52;46.11;101180.50;5037444;28;2401;-56
2024/04/06 09:04:22;;;;;;;;;;;;;;;16.81;47.64;101171.09;5038032;28;1116;-57
2024/04/06 09:06:47;;;;;;;;;;;;;;;16.49;48.81;101161.69;5037256;28;1155;-56
2024/04/06 09:09:13;;;;;;;;;;;;;;;16.30;49.09;101169.16;5037677;28;1167;-56
2024/04/06 09:11:38;;;;;;;;;;;;;;;16.24;49.20;101165.94;5037223;28;1068;-57
2024/04/06 09:14:04;;;;;;;;;;;;;;;16.08;49.60;101163.41;5037483;28;1075;-60
2024/04/06 09:16:30;;;;;;;;;;;;;;;17.02;47.76;101163.47;5037544;28;1056;-56
2024/04/06 09:18:55;;;;;;;;;;;;;;;17.32;46.56;101164.16;5036956;28;1937;-56
2024/04/06 09:21:21;;;;;;;;;;;;;;;16.64;48.18;101159.81;5037614;28;1072;-59
2024/04/06 09:23:50;;;;;;;;;;;;;;;16.49;48.65;101158.16;5037274;28;1036;-57
2024/04/06 09:26:20;;;;;;;;;;;;;;;16.28;49.10;101156.81;5037079;28;1040;-57
2024/04/06 09:28:55;;;;;;;;;;;;;;;16.13;49.60;101160.47;5037460;28;1115;-57
2024/04/06 09:31:23;;;;;;;;;;;;;;;16.05;49.70;101166.25;5035394;28;1898;-56
2024/04/06 09:33:52;;;;;;;;;;;;;;;15.99;49.79;101156.91;5037017;28;1064;-57
2024/04/06 09:36:19;;;;;;;;;;;;;;;15.91;50.22;101153.84;5037043;28;1112;-57
2024/04/06 09:38:44;;;;;;;;;;;;;;;15.89;50.03;101150.44;5036914;28;1961;-57
2024/04/06 09:41:10;;;;;;;;;;;;;;;16.68;48.78;101151.63;5052499;28;1251;-57
2024/04/06 09:43:35;;;;;;;;;;;;;;;17.54;46.36;101159.13;5036359;28;923;-53
2024/04/06 09:46:01;;;;;;;;;;;;;;;16.82;47.75;101166.63;5019482;28;1160;-56
2024/04/06 09:48:27;;;;;;;;;;;;;;;16.48;48.73;101148.50;5036812;28;1353;-57
2024/04/06 09:50:53;;;;;;;;;;;;;;;16.28;49.21;101158.63;5036929;28;1195;-59
2024/04/06 09:53:19;;;;;;;;;;;;;;;16.12;49.68;101151.66;5036588;28;1088;-59
2024/04/06 09:55:45;;;;;;;;;;;;;;;16.07;49.79;101155.53;5036324;28;889;-59
2024/04/06 09:58:10;;;;;;;;;;;;;;;15.95;49.87;101155.34;5036481;28;1918;-59
2024/04/06 10:00:38;;;;;;;;;;;;;;;15.94;49.99;101145.69;5051456;28;2286;-59
2024/04/06 10:03:03;;;;;;;;;;;;;;;16.84;48.44;101154.94;5036345;28;1126;-60
2024/04/06 10:05:44;;;;;;;;;;;;;;;17.44;46.77;101157.13;5035867;28;1346;-60
2024/04/06 10:08:10;;;;;;;;;;;;;;;16.62;48.65;101155.53;5036302;28;1180;-61
2024/04/06 10:10:40;;;;;;;;;;;;;;;16.39;49.04;101147.28;5036641;28;1073;-59
2024/04/06 10:13:05;;;;;;;;;;;;;;;16.28;49.35;101143.53;5027796;28;1156;-58
2024/04/06 10:15:31;;;;;;;;;;;;;;;16.10;49.90;101137.63;5032651;28;1065;-57
2024/04/06 10:17:58;;;;;;;;;;;;;;;16.03;49.86;101133.69;5018364;28;1915;-61
2024/04/06 10:20:24;;;;;;;;;;;;;;;17.07;47.74;101130.41;5013821;28;1315;-58
2024/04/06 10:22:50;;;;;;;;;;;;;;;17.36;46.74;101131.09;5027073;28;1328;-57
2024/04/06 10:25:17;;;;;;;;;;;;;;;16.73;48.46;101138.88;5025212;28;1204;-58
2024/04/06 10:27:43;;;;;;;;;;;;;;;16.53;49.08;101130.47;5031965;28;1208;-59
2024/04/06 10:30:08;;;;;;;;;;;;;;;16.28;49.38;101140.88;5031867;28;1476;-55
2024/04/06 10:32:34;;;;;;;;;;;;;;;16.23;49.59;101139.50;5026592;28;2470;-59
2024/04/06 10:35:00;;;;;;;;;;;;;;;16.07;50.17;101136.97;5029826;28;1184;-60
2024/04/06 10:37:26;;;;;;;;;;;;;;;15.96;50.28;101129.69;5027883;28;1910;-61
2024/04/06 10:39:51;;;;;;;;;;;;;;;16.63;48.95;101130.69;5029110;28;1357;-59
2024/04/06 10:42:17;;;;;;;;;;;;;;;17.52;46.53;101132.63;5023113;28;1354;-58
2024/04/06 10:44:42;;;;;;;;;;;;;;;16.81;48.40;101135.72;5039242;28;1254;-58
2024/04/06 10:47:11;;;;;;;;;;;;;;;16.47;48.96;101137.00;5026865;28;1452;-58
2024/04/06 10:49:36;;;;;;;;;;;;;;;16.25;49.90;101134.91;5023066;28;1680;-59
2024/04/06 10:52:02;;;;;;;;;;;;;;;16.16;49.79;101131.06;5022167;28;1435;-59
2024/04/06 10:54:28;;;;;;;;;;;;;;;16.09;49.91;101130.63;5021157;28;1260;-58
2024/04/06 10:56:53;;;;;;;;;;;;;;;15.99;50.05;101126.84;5025537;28;1363;-57
2024/04/06 10:59:20;;;;;;;;;;;;;;;15.95;50.23;101118.22;5033790;28;1980;-60
2024/04/06 11:01:46;;;;;;;;;;;;;;;16.81;48.55;101130.41;5030904;28;2382;-60
2024/04/06 11:04:12;;;;;;;;;;;;;;;17.23;47.36;101130.25;5035672;28;1156;-62
2024/04/06 11:06:37;;;;;;;;;;;;;;;16.62;48.71;101121.88;5034383;28;1301;-61
2024/04/06 11:09:06;;;;;;;;;;;;;;;16.32;49.66;101128.25;5035260;28;1180;-60
2024/04/06 11:11:31;;;;;;;;;;;;;;;16.19;50.01;101122.91;5034815;28;1314;-61
2024/04/06 11:13:57;;;;;;;;;;;;;;;16.07;50.02;101113.94;5035022;28;1156;-58
2024/04/06 11:16:23;;;;;;;;;;;;;;;15.99;50.37;101109.16;5050779;28;1329;-62
2024/04/06 11:18:49;;;;;;;;;;;;;;;16.13;50.15;101102.91;5017434;28;1893;-59
2024/04/06 11:21:14;;;;;;;;;;;;;;;17.56;46.87;101099.56;5017684;28;1076;-59
2024/04/06 11:23:40;;;;;;;;;;;;;;;16.97;47.99;101104.47;5037313;28;1307;-59
2024/04/06 11:26:06;;;;;;;;;;;;;;;16.60;49.07;101096.38;5033773;28;1111;-60
2024/04/06 11:28:32;;;;;;;;;;;;;;;16.34;49.74;101088.34;5051209;28;1115;-60
2024/04/06 11:30:59;;;;;;;;;;;;;;;16.24;49.62;101088.09;5034896;28;2332;-58
2024/04/06 11:33:25;;;;;;;;;;;;;;;16.11;49.90;101082.75;5035170;28;1086;-58
2024/04/06 11:35:51;;;;;;;;;;;;;;;16.08;50.04;101070.50;5035188;28;1064;-57
2024/04/06 11:38:16;;;;;;;;;;;;;;;17.48;47.23;101070.00;5035388;28;1907;-59
2024/04/06 11:40:47;;;;;;;;;;;;;;;16.98;47.95;101068.94;5035670;28;1055;-58
2024/04/06 11:43:15;;;;;;;;;;;;;;;16.60;48.89;101057.38;5035285;28;980;-58
2024/04/06 11:45:41;;;;;;;;;;;;;;;16.36;49.52;101055.44;5035626;28;1032;-58
2024/04/06 11:48:07;;;;;;;;;;;;;;;16.19;49.86;101051.25;5035008;28;1499;-59
2024/04/06 11:50:32;;;;;;;;;;;;;;;16.11;49.91;101040.28;5035772;28;969;-59
2024/04/06 11:52:58;;;;;;;;;;;;;;;16.05;50.31;101046.84;5034662;28;1075;-57
2024/04/06 11:55:23;;;;;;;;;;;;;;;15.99;50.66;101045.47;5035207;28;1265;-58
2024/04/06 11:57:49;;;;;;;;;;;;;;;17.42;47.37;101043.81;5034873;28;1898;-57
2024/04/06 12:00:15;;;;;;;;;;;;;;;17.05;47.81;101045.44;5035140;28;1008;-59
2024/04/06 12:02:41;;;;;;;;;;;;;;;16.58;49.09;101047.81;5037080;28;2617;-59
2024/04/06 12:05:07;;;;;;;;;;;;;;;16.35;49.71;101039.63;5039073;28;1008;-60
2024/04/06 12:07:33;;;;;;;;;;;;;;;15.60;49.97;100948.97;5037586;28;1135;-54
2024/04/06 12:09:59;;;;;;;;;;;;;;;16.19;49.99;101024.69;5039013;28;984;-55
2024/04/06 12:12:24;;;;;;;;;;;;;;;16.02;50.26;101015.19;5038800;28;1080;-60
2024/04/06 12:14:50;;;;;;;;;;;;;;;15.95;50.55;101017.38;5038438;28;1000;-55
2024/04/06 12:17:24;;;;;;;;;;;;;;;16.99;48.51;101014.84;5038245;28;1114;-58
2024/04/06 12:19:49;;;;;;;;;;;;;;;17.24;47.41;101013.16;5038416;28;879;-56
2024/04/06 12:22:15;;;;;;;;;;;;;;;16.60;49.28;101012.22;5038390;28;1143;-58
2024/04/06 12:24:40;;;;;;;;;;;;;;;16.36;49.80;101020.91;5038482;28;1136;-58
2024/04/06 12:27:06;;;;;;;;;;;;;;;16.20;50.03;100997.19;5038817;28;1203;-59
2024/04/06 12:29:31;;;;;;;;;;;;;;;16.12;50.18;101000.38;5036396;28;1335;-57
2024/04/06 12:31:57;;;;;;;;;;;;;;;16.13;50.07;100996.75;5033632;28;2226;-59
2024/04/06 12:34:22;;;;;;;;;;;;;;;15.93;50.53;100984.81;5038090;28;1152;-57
2024/04/06 12:36:48;;;;;;;;;;;;;;;17.06;48.50;100991.34;5037866;28;1143;-61
2024/04/06 12:39:14;;;;;;;;;;;;;;;17.49;47.16;100997.22;5028250;28;1972;-58
2024/04/06 12:41:40;;;;;;;;;;;;;;;16.81;48.65;100990.44;5033662;28;1105;-57